sensor_id;sensor_type;location;lat;lon;timestamp;pressure;altitude;pressure_sealevel;temperature;humidity
70916;BME280;58557;50.982;-3.222;2023-03-19T00:00:39;100615.28;;;8.30;57.03
70916;BME280;58557;50.982;-3.222;2023-03-19T00:03:04;100612.72;;;8.30;57.46
70916;BME280;58557;50.982;-3.222;2023-03-19T00:05:29;100619.61;;;7.68;59.50
70916;BME280;58557;50.982;-3.222;2023-03-19T00:07:54;100611.14;;;7.95;60.66
70916;BME280;58557;50.982;-3.222;2023-03-19T00:10:19;100616.25;;;8.31;58.90
70916;BME280;58557;50.982;-3.222;2023-03-19T00:12:44;100621.84;;;8.39;58.90
70916;BME280;58557;50.982;-3.222;2023-03-19T00:15:10;100631.27;;;7.24;62.00
70916;BME280;58557;50.982;-3.222;2023-03-19T00:17:35;100628.63;;;7.92;60.94
70916;BME280;58557;50.982;-3.222;2023-03-19T00:20:00;100623.63;;;8.92;57.20
70916;BME280;58557;50.982;-3.222;2023-03-19T00:22:25;100627.12;;;8.54;58.23
70916;BME280;58557;50.982;-3.222;2023-03-19T00:24:50;100635.42;;;9.47;55.93
70916;BME280;58557;50.982;-3.222;2023-03-19T00:27:15;100641.02;;;8.35;56.59
70916;BME280;58557;50.982;-3.222;2023-03-19T00:29:41;100644.25;;;8.10;58.36
70916;BME280;58557;50.982;-3.222;2023-03-19T00:32:06;100652.82;;;8.10;58.22
70916;BME280;58557;50.982;-3.222;2023-03-19T00:34:30;100657.50;;;7.81;58.69
70916;BME280;58557;50.982;-3.222;2023-03-19T00:36:56;100666.13;;;8.33;57.59
70916;BME280;58557;50.982;-3.222;2023-03-19T00:39:20;100673.73;;;8.75;56.16
70916;BME280;58557;50.982;-3.222;2023-03-19T00:41:46;100665.74;;;8.06;58.57
70916;BME280;58557;50.982;-3.222;2023-03-19T00:44:11;100677.45;;;7.92;59.98
70916;BME280;58557;50.982;-3.222;2023-03-19T00:46:36;100684.12;;;7.86;60.50
70916;BME280;58557;50.982;-3.222;2023-03-19T00:49:02;100686.71;;;8.62;57.67
70916;BME280;58557;50.982;-3.222;2023-03-19T00:51:27;100684.16;;;8.38;58.68
70916;BME280;58557;50.982;-3.222;2023-03-19T00:53:52;100688.01;;;8.56;58.32
70916;BME280;58557;50.982;-3.222;2023-03-19T00:56:18;100696.53;;;8.09;59.12
70916;BME280;58557;50.982;-3.222;2023-03-19T00:58:43;100696.64;;;8.97;56.03
70916;BME280;58557;50.982;-3.222;2023-03-19T01:01:08;100705.04;;;7.74;58.99
70916;BME280;58557;50.982;-3.222;2023-03-19T01:03:33;100715.02;;;7.19;61.03
70916;BME280;58557;50.982;-3.222;2023-03-19T01:05:58;100721.42;;;6.65;62.18
70916;BME280;58557;50.982;-3.222;2023-03-19T01:08:23;100720.27;;;8.12;59.62
70916;BME280;58557;50.982;-3.222;2023-03-19T01:10:48;100727.26;;;7.24;61.61
70916;BME280;58557;50.982;-3.222;2023-03-19T01:13:13;100724.08;;;6.48;63.60
70916;BME280;58557;50.982;-3.222;2023-03-19T01:15:40;100722.40;;;7.61;59.79
70916;BME280;58557;50.982;-3.222;2023-03-19T01:18:04;100720.75;;;7.36;61.46
70916;BME280;58557;50.982;-3.222;2023-03-19T01:20:29;100723.28;;;8.06;60.57
70916;BME280;58557;50.982;-3.222;2023-03-19T01:22:54;100722.35;;;7.93;60.04
70916;BME280;58557;50.982;-3.222;2023-03-19T01:25:19;100723.68;;;7.87;60.62
70916;BME280;58557;50.982;-3.222;2023-03-19T01:27:45;100724.99;;;8.16;58.95
70916;BME280;58557;50.982;-3.222;2023-03-19T01:30:10;100729.46;;;7.09;62.79
70916;BME280;58557;50.982;-3.222;2023-03-19T01:32:35;100737.33;;;8.01;59.45
70916;BME280;58557;50.982;-3.222;2023-03-19T01:35:00;100735.11;;;6.33;65.78
70916;BME280;58557;50.982;-3.222;2023-03-19T01:37:25;100736.56;;;6.97;62.55
70916;BME280;58557;50.982;-3.222;2023-03-19T01:39:51;100738.60;;;7.28;61.50
70916;BME280;58557;50.982;-3.222;2023-03-19T01:42:16;100737.08;;;8.82;56.80
70916;BME280;58557;50.982;-3.222;2023-03-19T01:44:42;100743.09;;;7.42;59.88
70916;BME280;58557;50.982;-3.222;2023-03-19T01:47:14;100732.44;;;7.06;61.17
70916;BME280;58557;50.982;-3.222;2023-03-19T01:49:32;100733.51;;;7.84;59.88
70916;BME280;58557;50.982;-3.222;2023-03-19T01:51:58;100732.02;;;7.01;60.96
70916;BME280;58557;50.982;-3.222;2023-03-19T01:54:23;100735.44;;;6.72;61.65
70916;BME280;58557;50.982;-3.222;2023-03-19T01:56:51;100743.69;;;7.82;58.38
70916;BME280;58557;50.982;-3.222;2023-03-19T01:59:15;100744.79;;;7.66;58.63
70916;BME280;58557;50.982;-3.222;2023-03-19T02:01:42;100736.49;;;8.31;56.93
70916;BME280;58557;50.982;-3.222;2023-03-19T02:04:04;100730.46;;;7.52;59.07
70916;BME280;58557;50.982;-3.222;2023-03-19T02:06:29;100713.57;;;6.04;63.71
70916;BME280;58557;50.982;-3.222;2023-03-19T02:08:54;100716.58;;;5.82;64.99
70916;BME280;58557;50.982;-3.222;2023-03-19T02:11:19;100733.67;;;6.41;62.52
70916;BME280;58557;50.982;-3.222;2023-03-19T02:13:44;100753.46;;;7.43;59.80
70916;BME280;58557;50.982;-3.222;2023-03-19T02:16:09;100746.57;;;6.96;58.97
70916;BME280;58557;50.982;-3.222;2023-03-19T02:18:35;100731.05;;;7.37;58.78
70916;BME280;58557;50.982;-3.222;2023-03-19T02:21:04;100725.60;;;7.24;59.36
70916;BME280;58557;50.982;-3.222;2023-03-19T02:23:33;100727.01;;;5.62;65.69
70916;BME280;58557;50.982;-3.222;2023-03-19T02:26:02;100735.92;;;6.04;66.68
70916;BME280;58557;50.982;-3.222;2023-03-19T02:28:18;100743.55;;;5.09;67.23
70916;BME280;58557;50.982;-3.222;2023-03-19T02:30:42;100749.21;;;6.05;63.97
70916;BME280;58557;50.982;-3.222;2023-03-19T02:33:08;100755.72;;;6.91;62.65
70916;BME280;58557;50.982;-3.222;2023-03-19T02:35:33;100743.89;;;8.35;56.35
70916;BME280;58557;50.982;-3.222;2023-03-19T02:37:57;100735.60;;;8.41;56.43
70916;BME280;58557;50.982;-3.222;2023-03-19T02:40:25;100738.37;;;9.38;52.01
70916;BME280;58557;50.982;-3.222;2023-03-19T02:42:48;100752.59;;;8.48;54.43
70916;BME280;58557;50.982;-3.222;2023-03-19T02:45:13;100748.91;;;7.98;54.46
70916;BME280;58557;50.982;-3.222;2023-03-19T02:47:38;100744.57;;;8.34;53.74
70916;BME280;58557;50.982;-3.222;2023-03-19T02:50:04;100752.49;;;8.07;54.55
70916;BME280;58557;50.982;-3.222;2023-03-19T02:52:28;100750.56;;;9.65;50.67
70916;BME280;58557;50.982;-3.222;2023-03-19T02:54:53;100755.85;;;9.80;49.39
70916;BME280;58557;50.982;-3.222;2023-03-19T02:57:18;100762.59;;;10.26;48.47
70916;BME280;58557;50.982;-3.222;2023-03-19T02:59:43;100773.84;;;8.36;51.13
70916;BME280;58557;50.982;-3.222;2023-03-19T03:02:08;100787.84;;;8.76;52.28
70916;BME280;58557;50.982;-3.222;2023-03-19T03:04:34;100782.40;;;9.35;50.70
70916;BME280;58557;50.982;-3.222;2023-03-19T03:06:58;100773.39;;;10.01;49.51
70916;BME280;58557;50.982;-3.222;2023-03-19T03:09:24;100772.06;;;9.49;50.29
70916;BME280;58557;50.982;-3.222;2023-03-19T03:11:49;100777.77;;;8.82;51.32
70916;BME280;58557;50.982;-3.222;2023-03-19T03:14:14;100771.86;;;8.82;50.86
70916;BME280;58557;50.982;-3.222;2023-03-19T03:16:39;100765.67;;;9.02;50.44
70916;BME280;58557;50.982;-3.222;2023-03-19T03:19:04;100770.98;;;9.77;49.48
70916;BME280;58557;50.982;-3.222;2023-03-19T03:21:30;100776.38;;;9.39;50.80
70916;BME280;58557;50.982;-3.222;2023-03-19T03:23:54;100786.97;;;10.03;48.44
70916;BME280;58557;50.982;-3.222;2023-03-19T03:26:20;100794.23;;;9.44;48.32
70916;BME280;58557;50.982;-3.222;2023-03-19T03:28:46;100795.64;;;10.03;47.52
70916;BME280;58557;50.982;-3.222;2023-03-19T03:31:11;100787.73;;;9.96;48.29
70916;BME280;58557;50.982;-3.222;2023-03-19T03:33:36;100783.86;;;9.28;49.93
70916;BME280;58557;50.982;-3.222;2023-03-19T03:36:01;100789.11;;;9.26;50.95
70916;BME280;58557;50.982;-3.222;2023-03-19T03:38:26;100797.07;;;8.78;49.67
70916;BME280;58557;50.982;-3.222;2023-03-19T03:40:52;100804.26;;;9.72;48.86
70916;BME280;58557;50.982;-3.222;2023-03-19T03:43:16;100811.16;;;9.73;49.08
70916;BME280;58557;50.982;-3.222;2023-03-19T03:45:42;100811.39;;;10.86;47.60
70916;BME280;58557;50.982;-3.222;2023-03-19T03:48:06;100809.38;;;10.92;47.11
70916;BME280;58557;50.982;-3.222;2023-03-19T03:50:31;100807.63;;;10.37;47.48
70916;BME280;58557;50.982;-3.222;2023-03-19T03:52:57;100815.62;;;10.45;45.76
70916;BME280;58557;50.982;-3.222;2023-03-19T03:55:22;100815.79;;;10.73;46.84
70916;BME280;58557;50.982;-3.222;2023-03-19T03:57:47;100819.16;;;10.37;46.02
70916;BME280;58557;50.982;-3.222;2023-03-19T04:00:13;100819.36;;;10.40;45.95
70916;BME280;58557;50.982;-3.222;2023-03-19T04:02:38;100821.44;;;11.37;44.82
70916;BME280;58557;50.982;-3.222;2023-03-19T04:05:04;100826.02;;;11.23;44.57
70916;BME280;58557;50.982;-3.222;2023-03-19T04:07:28;100829.35;;;12.09;43.41
70916;BME280;58557;50.982;-3.222;2023-03-19T04:09:53;100830.36;;;12.25;41.96
70916;BME280;58557;50.982;-3.222;2023-03-19T04:12:18;100824.82;;;12.33;42.64
70916;BME280;58557;50.982;-3.222;2023-03-19T04:14:43;100827.81;;;11.75;42.82
70916;BME280;58557;50.982;-3.222;2023-03-19T04:17:09;100827.42;;;11.99;42.49
70916;BME280;58557;50.982;-3.222;2023-03-19T04:19:34;100831.96;;;12.71;41.72
70916;BME280;58557;50.982;-3.222;2023-03-19T04:21:59;100831.99;;;11.66;42.90
70916;BME280;58557;50.982;-3.222;2023-03-19T04:24:24;100829.81;;;11.02;44.05
70916;BME280;58557;50.982;-3.222;2023-03-19T04:26:49;100831.27;;;11.53;43.42
70916;BME280;58557;50.982;-3.222;2023-03-19T04:29:14;100838.23;;;11.78;42.78
70916;BME280;58557;50.982;-3.222;2023-03-19T04:31:39;100841.01;;;10.64;44.23
70916;BME280;58557;50.982;-3.222;2023-03-19T04:34:04;100853.99;;;8.33;50.12
70916;BME280;58557;50.982;-3.222;2023-03-19T04:36:29;100852.61;;;9.32;48.44
70916;BME280;58557;50.982;-3.222;2023-03-19T04:38:55;100847.44;;;10.82;45.24
70916;BME280;58557;50.982;-3.222;2023-03-19T04:41:20;100856.67;;;10.78;44.55
70916;BME280;58557;50.982;-3.222;2023-03-19T04:43:46;100854.56;;;11.00;44.85
70916;BME280;58557;50.982;-3.222;2023-03-19T04:46:11;100860.66;;;10.89;45.01
70916;BME280;58557;50.982;-3.222;2023-03-19T04:48:36;100867.14;;;11.64;43.57
70916;BME280;58557;50.982;-3.222;2023-03-19T04:51:01;100871.62;;;11.48;44.08
70916;BME280;58557;50.982;-3.222;2023-03-19T04:53:26;100875.45;;;11.46;43.09
70916;BME280;58557;50.982;-3.222;2023-03-19T04:55:51;100879.13;;;10.95;44.66
70916;BME280;58557;50.982;-3.222;2023-03-19T04:58:17;100882.63;;;11.14;43.69
70916;BME280;58557;50.982;-3.222;2023-03-19T05:00:41;100886.98;;;10.67;45.31
70916;BME280;58557;50.982;-3.222;2023-03-19T05:03:07;100887.53;;;11.60;44.06
70916;BME280;58557;50.982;-3.222;2023-03-19T05:05:32;100891.59;;;11.61;44.17
70916;BME280;58557;50.982;-3.222;2023-03-19T05:07:57;100892.85;;;10.45;45.22
70916;BME280;58557;50.982;-3.222;2023-03-19T05:10:22;100892.59;;;11.68;45.31
70916;BME280;58557;50.982;-3.222;2023-03-19T05:12:48;100888.98;;;11.17;43.57
70916;BME280;58557;50.982;-3.222;2023-03-19T05:15:13;100894.72;;;10.87;45.58
70916;BME280;58557;50.982;-3.222;2023-03-19T05:17:38;100897.83;;;9.25;47.65
70916;BME280;58557;50.982;-3.222;2023-03-19T05:20:04;100900.35;;;9.57;48.21
70916;BME280;58557;50.982;-3.222;2023-03-19T05:22:29;100909.67;;;8.32;50.98
70916;BME280;58557;50.982;-3.222;2023-03-19T05:24:54;100918.61;;;9.30;49.70
70916;BME280;58557;50.982;-3.222;2023-03-19T05:27:19;100925.48;;;9.36;48.87
70916;BME280;58557;50.982;-3.222;2023-03-19T05:29:44;100930.56;;;8.32;52.09
70916;BME280;58557;50.982;-3.222;2023-03-19T05:32:09;100926.19;;;7.97;53.88
70916;BME280;58557;50.982;-3.222;2023-03-19T05:34:34;100927.65;;;8.84;51.43
70916;BME280;58557;50.982;-3.222;2023-03-19T05:36:59;100924.07;;;9.23;49.83
70916;BME280;58557;50.982;-3.222;2023-03-19T05:39:24;100930.47;;;9.27;50.40
70916;BME280;58557;50.982;-3.222;2023-03-19T05:41:49;100943.13;;;8.01;52.96
70916;BME280;58557;50.982;-3.222;2023-03-19T05:44:14;100938.08;;;7.26;53.79
70916;BME280;58557;50.982;-3.222;2023-03-19T05:46:40;100942.60;;;9.26;50.23
70916;BME280;58557;50.982;-3.222;2023-03-19T05:49:05;100939.63;;;10.18;47.75
70916;BME280;58557;50.982;-3.222;2023-03-19T05:51:30;100943.98;;;10.82;46.68
70916;BME280;58557;50.982;-3.222;2023-03-19T05:53:56;100952.60;;;9.42;48.94
70916;BME280;58557;50.982;-3.222;2023-03-19T05:56:21;100955.18;;;9.21;50.78
70916;BME280;58557;50.982;-3.222;2023-03-19T05:58:46;100951.34;;;9.85;49.79
70916;BME280;58557;50.982;-3.222;2023-03-19T06:01:12;100954.58;;;7.09;56.82
70916;BME280;58557;50.982;-3.222;2023-03-19T06:03:37;100952.20;;;8.03;55.10
70916;BME280;58557;50.982;-3.222;2023-03-19T06:06:02;100949.23;;;8.13;54.86
70916;BME280;58557;50.982;-3.222;2023-03-19T06:08:27;100949.51;;;8.87;52.63
70916;BME280;58557;50.982;-3.222;2023-03-19T06:10:53;100954.82;;;8.45;52.02
70916;BME280;58557;50.982;-3.222;2023-03-19T06:13:18;100951.10;;;10.39;48.53
70916;BME280;58557;50.982;-3.222;2023-03-19T06:15:43;100965.27;;;8.91;50.28
70916;BME280;58557;50.982;-3.222;2023-03-19T06:18:08;100969.81;;;7.42;54.28
70916;BME280;58557;50.982;-3.222;2023-03-19T06:20:34;100976.36;;;6.92;55.83
70916;BME280;58557;50.982;-3.222;2023-03-19T06:22:59;100976.70;;;6.33;58.32
70916;BME280;58557;50.982;-3.222;2023-03-19T06:25:24;100967.88;;;6.86;58.33
70916;BME280;58557;50.982;-3.222;2023-03-19T06:27:50;100961.45;;;7.31;56.22
70916;BME280;58557;50.982;-3.222;2023-03-19T06:30:15;100966.08;;;7.54;56.25
70916;BME280;58557;50.982;-3.222;2023-03-19T06:32:41;100973.64;;;8.23;52.99
70916;BME280;58557;50.982;-3.222;2023-03-19T06:35:06;100977.51;;;8.09;53.94
70916;BME280;58557;50.982;-3.222;2023-03-19T06:37:31;100978.48;;;9.02;51.63
70916;BME280;58557;50.982;-3.222;2023-03-19T06:39:56;100980.23;;;8.13;53.78
70916;BME280;58557;50.982;-3.222;2023-03-19T06:42:26;100990.45;;;9.39;50.86
70916;BME280;58557;50.982;-3.222;2023-03-19T06:44:47;100992.43;;;8.46;51.29
70916;BME280;58557;50.982;-3.222;2023-03-19T06:47:12;100993.01;;;9.20;48.84
70916;BME280;58557;50.982;-3.222;2023-03-19T06:49:37;100989.87;;;8.99;48.25
70916;BME280;58557;50.982;-3.222;2023-03-19T06:52:03;100984.25;;;7.54;53.25
70916;BME280;58557;50.982;-3.222;2023-03-19T06:54:27;100987.99;;;8.95;50.38
70916;BME280;58557;50.982;-3.222;2023-03-19T06:56:53;100995.83;;;10.11;48.34
70916;BME280;58557;50.982;-3.222;2023-03-19T06:59:18;101002.29;;;9.54;47.81
70916;BME280;58557;50.982;-3.222;2023-03-19T07:01:43;101009.01;;;10.00;47.41
70916;BME280;58557;50.982;-3.222;2023-03-19T07:04:09;101000.02;;;10.39;47.05
70916;BME280;58557;50.982;-3.222;2023-03-19T07:06:33;101000.79;;;9.23;49.37
70916;BME280;58557;50.982;-3.222;2023-03-19T07:08:59;101004.34;;;8.54;50.63
70916;BME280;58557;50.982;-3.222;2023-03-19T07:11:24;101002.05;;;7.58;53.01
70916;BME280;58557;50.982;-3.222;2023-03-19T07:13:49;101004.21;;;6.60;54.65
70916;BME280;58557;50.982;-3.222;2023-03-19T07:16:14;100999.79;;;6.39;59.39
70916;BME280;58557;50.982;-3.222;2023-03-19T07:18:39;100987.58;;;7.57;55.91
70916;BME280;58557;50.982;-3.222;2023-03-19T07:21:05;100984.00;;;7.26;56.61
70916;BME280;58557;50.982;-3.222;2023-03-19T07:23:30;100996.36;;;8.41;53.88
70916;BME280;58557;50.982;-3.222;2023-03-19T07:25:55;101005.32;;;9.67;50.76
70916;BME280;58557;50.982;-3.222;2023-03-19T07:28:20;101004.64;;;9.59;49.39
70916;BME280;58557;50.982;-3.222;2023-03-19T07:30:45;101005.65;;;9.27;49.22
70916;BME280;58557;50.982;-3.222;2023-03-19T07:33:10;101018.46;;;10.63;46.55
70916;BME280;58557;50.982;-3.222;2023-03-19T07:35:35;101029.11;;;11.90;46.12
70916;BME280;58557;50.982;-3.222;2023-03-19T07:38:01;101021.96;;;12.25;42.78
70916;BME280;58557;50.982;-3.222;2023-03-19T07:40:26;101022.97;;;12.16;44.04
70916;BME280;58557;50.982;-3.222;2023-03-19T07:42:51;101035.44;;;11.53;43.87
70916;BME280;58557;50.982;-3.222;2023-03-19T07:45:17;101047.94;;;12.16;42.96
70916;BME280;58557;50.982;-3.222;2023-03-19T07:47:43;101037.20;;;10.29;45.22
70916;BME280;58557;50.982;-3.222;2023-03-19T07:50:09;101025.16;;;11.65;43.25
70916;BME280;58557;50.982;-3.222;2023-03-19T07:52:34;101022.82;;;11.62;43.16
70916;BME280;58557;50.982;-3.222;2023-03-19T07:55:00;101041.40;;;10.38;45.16
70916;BME280;58557;50.982;-3.222;2023-03-19T07:57:25;101050.90;;;10.38;45.79
70916;BME280;58557;50.982;-3.222;2023-03-19T07:59:51;101046.47;;;11.40;44.05
70916;BME280;58557;50.982;-3.222;2023-03-19T08:02:16;101044.17;;;12.06;42.98
70916;BME280;58557;50.982;-3.222;2023-03-19T08:04:41;101049.39;;;13.43;39.78
70916;BME280;58557;50.982;-3.222;2023-03-19T08:07:08;101058.20;;;12.77;40.24
70916;BME280;58557;50.982;-3.222;2023-03-19T08:09:32;101057.04;;;14.01;41.47
70916;BME280;58557;50.982;-3.222;2023-03-19T08:11:58;101045.22;;;15.77;37.15
70916;BME280;58557;50.982;-3.222;2023-03-19T08:14:24;101045.47;;;14.08;36.85
70916;BME280;58557;50.982;-3.222;2023-03-19T08:16:49;101055.64;;;14.01;37.18
70916;BME280;58557;50.982;-3.222;2023-03-19T08:19:15;101067.90;;;14.67;36.46
70916;BME280;58557;50.982;-3.222;2023-03-19T08:21:41;101065.48;;;13.01;38.76
70916;BME280;58557;50.982;-3.222;2023-03-19T08:24:07;101067.88;;;14.60;36.49
70916;BME280;58557;50.982;-3.222;2023-03-19T08:26:32;101068.70;;;13.96;36.46
70916;BME280;58557;50.982;-3.222;2023-03-19T08:29:03;101066.67;;;12.27;38.20
70916;BME280;58557;50.982;-3.222;2023-03-19T08:31:24;101069.82;;;12.94;37.51
70916;BME280;58557;50.982;-3.222;2023-03-19T08:33:50;101071.64;;;13.51;37.37
70916;BME280;58557;50.982;-3.222;2023-03-19T08:36:15;101078.18;;;14.41;36.05
70916;BME280;58557;50.982;-3.222;2023-03-19T08:38:42;101084.78;;;12.17;39.22
70916;BME280;58557;50.982;-3.222;2023-03-19T08:41:07;101097.79;;;11.63;40.47
70916;BME280;58557;50.982;-3.222;2023-03-19T08:43:33;101102.02;;;11.35;40.93
70916;BME280;58557;50.982;-3.222;2023-03-19T08:45:57;101099.46;;;10.15;42.33
70916;BME280;58557;50.982;-3.222;2023-03-19T08:48:23;101093.60;;;9.65;43.95
70916;BME280;58557;50.982;-3.222;2023-03-19T08:50:52;101094.02;;;9.32;45.43
70916;BME280;58557;50.982;-3.222;2023-03-19T08:53:14;101106.55;;;10.10;44.69
70916;BME280;58557;50.982;-3.222;2023-03-19T08:55:39;101114.35;;;10.18;44.15
70916;BME280;58557;50.982;-3.222;2023-03-19T08:58:05;101118.44;;;10.11;43.03
70916;BME280;58557;50.982;-3.222;2023-03-19T09:00:31;101110.51;;;11.83;40.53
70916;BME280;58557;50.982;-3.222;2023-03-19T09:02:57;101107.57;;;11.14;41.02
70916;BME280;58557;50.982;-3.222;2023-03-19T09:05:22;101115.56;;;10.06;43.52
70916;BME280;58557;50.982;-3.222;2023-03-19T09:07:47;101124.98;;;10.79;42.89
70916;BME280;58557;50.982;-3.222;2023-03-19T09:10:12;101128.81;;;11.16;41.70
70916;BME280;58557;50.982;-3.222;2023-03-19T09:12:37;101133.68;;;10.06;43.97
70916;BME280;58557;50.982;-3.222;2023-03-19T09:15:03;101129.00;;;8.64;46.28
70916;BME280;58557;50.982;-3.222;2023-03-19T09:17:28;101133.15;;;7.54;48.26
70916;BME280;58557;50.982;-3.222;2023-03-19T09:19:53;101146.48;;;7.83;48.95
70916;BME280;58557;50.982;-3.222;2023-03-19T09:22:19;101150.66;;;8.24;47.21
70916;BME280;58557;50.982;-3.222;2023-03-19T09:24:44;101153.16;;;8.13;48.72
70916;BME280;58557;50.982;-3.222;2023-03-19T09:27:10;101138.59;;;9.42;46.97
70916;BME280;58557;50.982;-3.222;2023-03-19T09:29:35;101142.97;;;9.63;44.76
70916;BME280;58557;50.982;-3.222;2023-03-19T09:32:01;101157.71;;;9.92;45.49
70916;BME280;58557;50.982;-3.222;2023-03-19T09:34:26;101163.39;;;11.45;40.08
70916;BME280;58557;50.982;-3.222;2023-03-19T09:36:52;101154.89;;;11.75;39.68
70916;BME280;58557;50.982;-3.222;2023-03-19T09:39:18;101146.91;;;10.45;41.27
70916;BME280;58557;50.982;-3.222;2023-03-19T09:41:53;101148.54;;;10.37;42.52
70916;BME280;58557;50.982;-3.222;2023-03-19T09:44:12;101156.29;;;10.47;43.53
70916;BME280;58557;50.982;-3.222;2023-03-19T09:46:39;101153.96;;;10.93;41.20
70916;BME280;58557;50.982;-3.222;2023-03-19T09:49:06;101149.11;;;10.60;41.09
70916;BME280;58557;50.982;-3.222;2023-03-19T09:51:29;101143.62;;;10.90;40.09
70916;BME280;58557;50.982;-3.222;2023-03-19T09:53:57;101159.37;;;10.94;40.37
70916;BME280;58557;50.982;-3.222;2023-03-19T09:56:19;101167.85;;;10.83;38.36
70916;BME280;58557;50.982;-3.222;2023-03-19T09:58:44;101164.56;;;10.06;39.38
70916;BME280;58557;50.982;-3.222;2023-03-19T10:01:21;101155.68;;;10.71;39.13
70916;BME280;58557;50.982;-3.222;2023-03-19T10:03:42;101145.66;;;11.32;38.81
70916;BME280;58557;50.982;-3.222;2023-03-19T10:06:11;101151.86;;;11.37;38.42
70916;BME280;58557;50.982;-3.222;2023-03-19T10:08:40;101160.34;;;10.62;38.26
70916;BME280;58557;50.982;-3.222;2023-03-19T10:10:59;101152.15;;;12.26;35.86
70916;BME280;58557;50.982;-3.222;2023-03-19T10:13:29;101149.07;;;12.52;35.87
70916;BME280;58557;50.982;-3.222;2023-03-19T10:15:44;101156.36;;;13.21;35.66
70916;BME280;58557;50.982;-3.222;2023-03-19T10:18:10;101158.60;;;13.43;35.33
70916;BME280;58557;50.982;-3.222;2023-03-19T10:20:42;101152.31;;;12.07;36.66
70916;BME280;58557;50.982;-3.222;2023-03-19T10:23:04;101137.23;;;11.55;37.45
70916;BME280;58557;50.982;-3.222;2023-03-19T10:25:27;101146.47;;;11.07;39.37
70916;BME280;58557;50.982;-3.222;2023-03-19T10:27:55;101157.52;;;11.27;38.48
70916;BME280;58557;50.982;-3.222;2023-03-19T10:30:18;101155.74;;;12.17;37.74
70916;BME280;58557;50.982;-3.222;2023-03-19T10:32:44;101154.25;;;13.15;36.05
70916;BME280;58557;50.982;-3.222;2023-03-19T10:35:16;101153.05;;;12.36;36.53
70916;BME280;58557;50.982;-3.222;2023-03-19T10:37:35;101157.46;;;13.62;34.88
70916;BME280;58557;50.982;-3.222;2023-03-19T10:40:00;101161.96;;;13.95;33.84
70916;BME280;58557;50.982;-3.222;2023-03-19T10:42:37;101162.30;;;13.59;33.68
70916;BME280;58557;50.982;-3.222;2023-03-19T10:44:58;101163.52;;;14.46;34.49
70916;BME280;58557;50.982;-3.222;2023-03-19T10:47:17;101152.93;;;15.32;30.87
70916;BME280;58557;50.982;-3.222;2023-03-19T10:49:43;101149.70;;;15.36;32.48
70916;BME280;58557;50.982;-3.222;2023-03-19T10:52:16;101156.40;;;14.16;32.63
70916;BME280;58557;50.982;-3.222;2023-03-19T10:54:39;101169.02;;;14.75;32.53
70916;BME280;58557;50.982;-3.222;2023-03-19T10:57:00;101159.75;;;13.43;33.52
70916;BME280;58557;50.982;-3.222;2023-03-19T10:59:31;101150.22;;;13.44;35.36
70916;BME280;58557;50.982;-3.222;2023-03-19T11:01:56;101149.44;;;13.79;34.43
70916;BME280;58557;50.982;-3.222;2023-03-19T11:04:19;101161.36;;;14.03;33.76
70916;BME280;58557;50.982;-3.222;2023-03-19T11:06:47;101165.68;;;14.18;33.07
70916;BME280;58557;50.982;-3.222;2023-03-19T11:09:17;101157.79;;;12.08;35.36
70916;BME280;58557;50.982;-3.222;2023-03-19T11:11:37;101152.83;;;13.25;34.41
70916;BME280;58557;50.982;-3.222;2023-03-19T11:14:05;101158.93;;;13.78;34.96
70916;BME280;58557;50.982;-3.222;2023-03-19T11:16:25;101163.66;;;15.07;32.58
70916;BME280;58557;50.982;-3.222;2023-03-19T11:18:51;101169.65;;;14.24;33.33
70916;BME280;58557;50.982;-3.222;2023-03-19T11:21:26;101162.52;;;14.45;34.04
70916;BME280;58557;50.982;-3.222;2023-03-19T11:23:42;101147.70;;;14.54;31.31
70916;BME280;58557;50.982;-3.222;2023-03-19T11:26:08;101146.97;;;15.68;31.79
70916;BME280;58557;50.982;-3.222;2023-03-19T11:28:36;101156.09;;;15.66;31.12
70916;BME280;58557;50.982;-3.222;2023-03-19T11:31:07;101159.74;;;14.92;31.06
70916;BME280;58557;50.982;-3.222;2023-03-19T11:33:34;101159.38;;;15.30;33.56
70916;BME280;58557;50.982;-3.222;2023-03-19T11:35:59;101156.27;;;15.20;31.13
70916;BME280;58557;50.982;-3.222;2023-03-19T11:38:22;101169.65;;;14.69;33.20
70916;BME280;58557;50.982;-3.222;2023-03-19T11:40:44;101170.12;;;12.82;35.89
70916;BME280;58557;50.982;-3.222;2023-03-19T11:43:24;101163.46;;;14.38;34.26
70916;BME280;58557;50.982;-3.222;2023-03-19T11:45:37;101149.01;;;13.65;35.56
70916;BME280;58557;50.982;-3.222;2023-03-19T11:48:17;101157.48;;;12.24;35.62
70916;BME280;58557;50.982;-3.222;2023-03-19T11:50:27;101156.85;;;14.14;32.91
70916;BME280;58557;50.982;-3.222;2023-03-19T11:53:00;101150.56;;;14.66;33.48
70916;BME280;58557;50.982;-3.222;2023-03-19T11:55:20;101156.62;;;14.09;34.49
70916;BME280;58557;50.982;-3.222;2023-03-19T11:57:55;101153.45;;;13.01;35.17
70916;BME280;58557;50.982;-3.222;2023-03-19T12:00:17;101147.19;;;15.39;31.55
70916;BME280;58557;50.982;-3.222;2023-03-19T12:02:57;101146.48;;;13.36;34.16
70916;BME280;58557;50.982;-3.222;2023-03-19T12:05:13;101144.35;;;13.67;33.82
70916;BME280;58557;50.982;-3.222;2023-03-19T12:07:31;101143.71;;;13.13;35.78
70916;BME280;58557;50.982;-3.222;2023-03-19T12:09:58;101146.75;;;13.41;35.26
70916;BME280;58557;50.982;-3.222;2023-03-19T12:12:21;101138.03;;;14.84;32.84
70916;BME280;58557;50.982;-3.222;2023-03-19T12:14:53;101138.74;;;16.59;31.48
70916;BME280;58557;50.982;-3.222;2023-03-19T12:17:23;101143.98;;;14.15;33.33
70916;BME280;58557;50.982;-3.222;2023-03-19T12:19:47;101142.57;;;13.81;34.04
70916;BME280;58557;50.982;-3.222;2023-03-19T12:22:07;101135.86;;;13.26;33.54
70916;BME280;58557;50.982;-3.222;2023-03-19T12:24:33;101125.89;;;15.37;31.45
70916;BME280;58557;50.982;-3.222;2023-03-19T12:26:58;101132.80;;;16.91;30.08
70916;BME280;58557;50.982;-3.222;2023-03-19T12:29:22;101139.68;;;15.55;33.17
70916;BME280;58557;50.982;-3.222;2023-03-19T12:31:52;101142.83;;;13.46;33.67
70916;BME280;58557;50.982;-3.222;2023-03-19T12:34:18;101144.02;;;12.44;35.56